createdAt,value
2018-05-02T00:02:28.371Z,74.60
2018-05-02T00:04:56.001Z,74.60
2018-05-02T00:07:23.944Z,74.40
2018-05-02T00:09:52.713Z,74.40
2018-05-02T00:12:20.247Z,74.40
2018-05-02T00:14:47.758Z,74.70
2018-05-02T00:17:15.330Z,75.10
2018-05-02T00:19:43.321Z,75.10
2018-05-02T00:22:10.862Z,75.10
2018-05-02T00:24:39.757Z,75.10
2018-05-02T00:27:07.320Z,75.10
2018-05-02T00:29:34.826Z,75.50
2018-05-02T00:32:02.539Z,75.40
2018-05-02T00:34:30.758Z,75.30
2018-05-02T00:36:58.312Z,75.30
2018-05-02T00:39:25.814Z,75.30
2018-05-02T00:41:53.985Z,75.20
2018-05-02T00:44:21.516Z,75.10
2018-05-02T00:46:49.142Z,75.20
2018-05-02T00:49:16.869Z,75.10
2018-05-02T00:51:44.397Z,75.10
2018-05-02T00:54:12.400Z,75.20
2018-05-02T00:56:40.493Z,75.20
2018-05-02T00:59:08.025Z,75.10
2018-05-02T01:01:36.596Z,75.20
2018-05-02T01:04:04.124Z,75.30
2018-05-02T01:06:32.029Z,75.30
2018-05-02T01:08:59.770Z,75.30
2018-05-02T01:11:27.285Z,75.30
2018-05-02T01:13:54.883Z,75.40
2018-05-02T01:16:22.642Z,75.40
2018-05-02T01:18:50.175Z,75.50
2018-05-02T01:21:17.849Z,75.50
2018-05-02T01:23:45.393Z,75.50
2018-05-02T01:26:13.290Z,75.50
2018-05-02T01:28:41.616Z,75.60
2018-05-02T01:31:09.129Z,75.60
2018-05-02T01:33:36.665Z,75.70
2018-05-02T01:36:04.188Z,75.70
2018-05-02T01:38:31.726Z,75.80
2018-05-02T01:40:59.439Z,75.90
2018-05-02T01:43:26.998Z,75.90
2018-05-02T01:45:54.498Z,76.00
2018-05-02T01:48:22.808Z,76.10
2018-05-02T01:50:50.308Z,75.80
2018-05-02T01:53:17.834Z,75.70
2018-05-02T01:55:45.344Z,75.80
2018-05-02T01:58:12.882Z,75.90
2018-05-02T02:00:40.372Z,76.10
2018-05-02T02:03:07.932Z,75.90
2018-05-02T02:05:35.921Z,75.80
2018-05-02T02:08:04.707Z,75.80
2018-05-02T02:10:32.208Z,76.10
2018-05-02T02:12:59.740Z,75.90
2018-05-02T02:15:27.240Z,75.70
2018-05-02T02:17:55.169Z,75.70
2018-05-02T02:20:22.966Z,75.70
2018-05-02T02:22:50.905Z,75.80
2018-05-02T02:25:18.415Z,75.80
2018-05-02T02:27:46.086Z,75.70
2018-05-02T02:30:13.639Z,75.60
2018-05-02T02:32:41.200Z,75.70
2018-05-02T02:35:08.860Z,75.70
2018-05-02T02:37:36.389Z,75.50
2018-05-02T02:40:03.925Z,75.50
2018-05-02T02:42:31.434Z,75.90
2018-05-02T02:44:58.965Z,76.30
2018-05-02T02:47:26.479Z,76.30
2018-05-02T02:49:54.649Z,76.10
2018-05-02T02:52:22.154Z,76.30
2018-05-02T02:54:49.693Z,76.30
2018-05-02T02:57:17.192Z,76.50
2018-05-02T02:59:44.737Z,76.50
2018-05-02T03:02:12.240Z,76.50
2018-05-02T03:04:39.936Z,76.30
2018-05-02T03:07:07.448Z,76.30
2018-05-02T03:09:35.053Z,76.50
2018-05-02T03:12:02.567Z,76.50
2018-05-02T03:14:31.034Z,76.50
2018-05-02T03:16:58.546Z,76.50
2018-05-02T03:19:26.096Z,76.20
2018-05-02T03:21:53.594Z,76.50
2018-05-02T03:24:21.121Z,76.60
2018-05-02T03:26:48.639Z,76.60
2018-05-02T03:29:16.165Z,76.60
2018-05-02T03:31:43.673Z,76.50
2018-05-02T03:34:11.225Z,76.50
2018-05-02T03:36:38.731Z,76.70
2018-05-02T03:39:07.236Z,76.60
2018-05-02T03:41:35.229Z,76.80
2018-05-02T03:44:02.755Z,76.90
2018-05-02T03:46:31.787Z,76.70
2018-05-02T03:48:59.310Z,76.70
2018-05-02T03:51:27.283Z,77.00
2018-05-02T03:53:54.947Z,76.80
2018-05-02T03:56:22.605Z,76.70
2018-05-02T03:58:50.171Z,76.80
2018-05-02T04:01:29.605Z,76.70
2018-05-02T04:07:15.720Z,76.80
2018-05-02T04:09:45.033Z,77.20
2018-05-02T04:12:24.253Z,77.30
2018-05-02T04:14:51.774Z,77.60
2018-05-02T04:17:19.264Z,77.50
2018-05-02T04:19:46.901Z,77.60
2018-05-02T04:22:14.404Z,77.40
2018-05-02T04:24:41.945Z,77.40
2018-05-02T04:27:09.454Z,77.10
2018-05-02T04:29:37.665Z,77.30
2018-05-02T04:32:05.181Z,77.10
2018-05-02T04:34:32.709Z,77.20
2018-05-02T04:37:00.211Z,77.30
2018-05-02T04:39:28.181Z,77.10
2018-05-02T04:41:55.689Z,76.70
2018-05-02T04:44:23.288Z,76.50
2018-05-02T04:46:50.785Z,76.50
2018-05-02T04:49:18.403Z,76.50
2018-05-02T04:51:45.906Z,76.50
2018-05-02T04:54:13.433Z,76.70
2018-05-02T04:56:40.974Z,76.70
2018-05-02T04:59:08.473Z,76.90
2018-05-02T05:01:36.001Z,77.00
2018-05-02T05:04:03.569Z,77.00
2018-05-02T05:06:31.168Z,76.60
2018-05-02T05:08:58.877Z,76.10
2018-05-02T05:11:26.501Z,76.20
2018-05-02T05:13:54.166Z,75.80
2018-05-02T05:16:21.708Z,75.70
2018-05-02T05:18:49.201Z,75.50
2018-05-02T05:21:16.934Z,75.30
2018-05-02T05:23:44.454Z,75.40
2018-05-02T05:26:12.404Z,74.70
2018-05-02T05:28:40.113Z,74.60
2018-05-02T05:31:08.388Z,74.20
2018-05-02T05:33:35.889Z,74.00
2018-05-02T05:36:03.417Z,73.70
2018-05-02T05:38:30.909Z,73.20
2018-05-02T05:40:58.437Z,73.40
2018-05-02T05:43:25.939Z,73.40
2018-05-02T05:45:54.761Z,73.70
2018-05-02T05:48:22.256Z,73.70
2018-05-02T05:50:49.862Z,74.00
2018-05-02T05:53:18.191Z,74.10
2018-05-02T05:55:45.724Z,74.10
2018-05-02T05:58:13.221Z,74.10
2018-05-02T06:00:40.844Z,74.30
2018-05-02T06:03:08.688Z,74.00
2018-05-02T06:05:37.073Z,73.90
2018-05-02T06:08:04.719Z,73.90
2018-05-02T06:10:32.379Z,74.00
2018-05-02T06:13:00.015Z,74.10
2018-05-02T06:15:28.461Z,73.70
2018-05-02T06:17:56.792Z,73.40
2018-05-02T06:20:24.328Z,73.10
2018-05-02T06:22:51.829Z,73.30
2018-05-02T06:25:20.512Z,72.80
2018-05-02T06:27:48.033Z,72.00
2018-05-02T06:30:16.318Z,72.00
2018-05-02T06:32:43.828Z,71.60
2018-05-02T06:35:11.813Z,71.40
2018-05-02T06:37:39.428Z,71.40
2018-05-02T06:40:07.307Z,69.40
2018-05-02T06:42:35.005Z,68.70
2018-05-02T06:45:02.520Z,67.30
2018-05-02T06:47:30.457Z,65.50
2018-05-02T06:49:57.979Z,65.50
2018-05-02T06:52:25.518Z,64.00
2018-05-02T06:54:53.029Z,64.50
2018-05-02T06:57:20.571Z,63.40
2018-05-02T06:59:51.654Z,63.00
2018-05-02T07:02:19.199Z,62.80
2018-05-02T07:04:46.886Z,64.40
2018-05-02T07:07:15.132Z,65.10
2018-05-02T07:09:42.603Z,65.70
2018-05-02T07:12:11.173Z,68.10
2018-05-02T07:14:39.250Z,68.10
2018-05-02T07:17:06.940Z,67.10
2018-05-02T07:19:34.981Z,66.30
2018-05-02T07:22:03.336Z,65.30
2018-05-02T07:24:30.864Z,64.30
2018-05-02T07:26:59.265Z,65.20
2018-05-02T07:29:26.856Z,66.20
2018-05-02T07:31:54.393Z,65.90
2018-05-02T07:34:22.295Z,66.90
2018-05-02T07:36:49.843Z,66.90
2018-05-02T07:39:18.628Z,67.10
2018-05-02T07:41:46.991Z,68.20
2018-05-02T07:44:14.513Z,68.70
2018-05-02T07:46:42.042Z,69.40
2018-05-02T07:49:09.554Z,69.80
2018-05-02T07:51:37.088Z,70.10
2018-05-02T07:54:05.440Z,71.20
2018-05-02T07:56:33.007Z,71.20
2018-05-02T07:59:00.521Z,71.50
2018-05-02T08:01:28.927Z,71.40
2018-05-02T08:03:56.435Z,71.20
2018-05-02T08:06:23.973Z,71.50
2018-05-02T08:08:51.474Z,71.70
2018-05-02T08:11:19.119Z,71.80
2018-05-02T08:13:46.622Z,71.80
2018-05-02T08:16:15.054Z,71.80
2018-05-02T08:18:42.557Z,71.80
2018-05-02T08:21:10.158Z,71.90
2018-05-02T08:23:37.819Z,72.30
2018-05-02T08:26:05.580Z,72.30
2018-05-02T08:28:33.238Z,71.90
2018-05-02T08:31:00.815Z,72.40
2018-05-02T08:33:28.398Z,71.40
2018-05-02T08:35:57.806Z,69.10
2018-05-02T08:38:25.401Z,67.50
2018-05-02T08:40:53.059Z,64.90
2018-05-02T08:43:21.743Z,64.00
2018-05-02T08:45:49.418Z,59.50
2018-05-02T08:48:16.947Z,60.10
2018-05-02T08:50:45.668Z,59.10
2018-05-02T08:53:14.638Z,59.80
2018-05-02T08:55:42.285Z,60.00
2018-05-02T08:58:09.829Z,59.90
2018-05-02T09:00:37.738Z,61.00
2018-05-02T09:03:05.499Z,61.20
2018-05-02T09:05:33.139Z,61.80
2018-05-02T09:08:00.670Z,63.80
2018-05-02T09:10:28.172Z,66.00
2018-05-02T09:12:55.715Z,67.10
2018-05-02T09:15:23.233Z,66.70
2018-05-02T09:17:52.577Z,66.90
2018-05-02T09:20:21.404Z,66.80
2018-05-02T09:22:49.402Z,65.50
2018-05-02T09:25:17.069Z,65.60
2018-05-02T09:27:44.726Z,64.50
2018-05-02T09:30:12.246Z,64.10
2018-05-02T09:32:39.741Z,64.50
2018-05-02T09:35:07.925Z,65.50
2018-05-02T09:37:35.572Z,66.90
2018-05-02T09:40:03.101Z,67.20
2018-05-02T09:42:30.621Z,66.00
2018-05-02T09:44:58.157Z,65.20
2018-05-02T09:47:25.665Z,64.70
2018-05-02T09:49:53.233Z,64.00
2018-05-02T09:52:21.269Z,64.10
2018-05-02T09:54:48.810Z,64.10
2018-05-02T09:59:49.525Z,66.70
2018-05-02T10:02:17.033Z,67.10
2018-05-02T10:04:44.576Z,67.40
2018-05-02T10:07:12.188Z,67.50
2018-05-02T10:09:39.728Z,67.20
2018-05-02T10:12:07.229Z,67.00
2018-05-02T10:14:34.769Z,68.00
2018-05-02T10:17:04.174Z,68.50
2018-05-02T10:19:31.712Z,68.10
2018-05-02T10:21:59.223Z,68.20
2018-05-02T10:24:28.554Z,67.70
2018-05-02T10:26:57.335Z,67.70
2018-05-02T10:29:24.871Z,67.80
2018-05-02T10:31:52.780Z,67.00
2018-05-02T10:34:20.321Z,67.00
2018-05-02T10:36:48.055Z,67.70
2018-05-02T10:39:15.635Z,67.30
2018-05-02T10:41:43.168Z,67.10
2018-05-02T10:44:10.710Z,68.20
2018-05-02T10:46:41.601Z,69.00
2018-05-02T10:49:09.139Z,69.10
2018-05-02T10:51:36.641Z,68.90
2018-05-02T10:54:04.198Z,69.40
2018-05-02T10:56:32.580Z,69.10
2018-05-02T10:59:00.134Z,68.60
2018-05-02T11:01:27.870Z,69.40
2018-05-02T11:03:55.491Z,69.50
2018-05-02T11:06:24.636Z,68.80
2018-05-02T11:08:52.182Z,67.80
2018-05-02T11:11:19.681Z,67.00
2018-05-02T11:13:47.200Z,66.70
2018-05-02T11:16:14.729Z,67.00
2018-05-02T11:18:42.258Z,66.80
2018-05-02T11:21:09.805Z,66.80
2018-05-02T11:23:37.709Z,66.20
2018-05-02T11:26:05.247Z,66.20
2018-05-02T11:28:32.759Z,66.20
2018-05-02T11:31:00.285Z,66.10
2018-05-02T11:33:27.789Z,66.20
2018-05-02T11:35:56.091Z,66.80
2018-05-02T11:38:23.629Z,67.00
2018-05-02T11:40:51.172Z,67.60
2018-05-02T11:43:18.849Z,67.20
2018-05-02T11:45:46.509Z,67.10
2018-05-02T11:48:14.169Z,66.80
2018-05-02T11:50:41.834Z,66.30
2018-05-02T11:53:09.878Z,66.80
2018-05-02T11:55:37.425Z,66.50
2018-05-02T11:58:05.334Z,65.70
2018-05-02T12:00:32.879Z,65.70
2018-05-02T12:03:00.585Z,65.70
2018-05-02T12:05:28.145Z,66.10
2018-05-02T12:07:55.667Z,66.80
2018-05-02T12:10:23.325Z,66.30
2018-05-02T12:12:50.829Z,66.70
2018-05-02T12:15:19.291Z,66.80
2018-05-02T12:17:46.789Z,66.80
2018-05-02T12:20:14.325Z,66.80
2018-05-02T12:22:41.839Z,66.90
2018-05-02T12:25:09.366Z,66.50
2018-05-02T12:27:36.872Z,66.00
2018-05-02T12:30:04.569Z,65.30
2018-05-02T12:32:32.081Z,65.50
2018-05-02T12:34:59.705Z,65.80
2018-05-02T12:37:27.213Z,65.40
2018-05-02T12:39:55.217Z,65.30
2018-05-02T12:42:22.737Z,65.30
2018-05-02T12:44:51.281Z,65.50
2018-05-02T12:47:19.628Z,65.50
2018-05-02T12:49:48.399Z,66.80
2018-05-02T12:52:15.954Z,67.10
2018-05-02T12:54:43.465Z,67.20
2018-05-02T12:57:11.069Z,66.80
2018-05-02T12:59:38.580Z,65.90
2018-05-02T13:02:06.899Z,65.40
2018-05-02T13:04:34.403Z,64.70
2018-05-02T13:07:01.957Z,64.50
2018-05-02T13:09:30.481Z,64.30
2018-05-02T13:11:58.022Z,64.80
2018-05-02T13:14:26.509Z,64.90
2018-05-02T13:16:54.041Z,65.40
2018-05-02T13:19:21.556Z,65.70
2018-05-02T13:21:49.087Z,65.20
2018-05-02T13:24:16.589Z,64.50
2018-05-02T13:26:45.715Z,65.20
2018-05-02T13:29:13.611Z,65.60
2018-05-02T13:31:41.165Z,65.60
2018-05-02T13:34:08.665Z,64.90
2018-05-02T13:36:36.215Z,64.90
2018-05-02T13:39:04.851Z,65.40
2018-05-02T13:41:32.397Z,65.80
2018-05-02T13:44:00.065Z,66.20
2018-05-02T13:46:27.623Z,66.30
2018-05-02T13:48:55.817Z,66.00
2018-05-02T13:51:23.358Z,66.20
2018-05-02T13:53:52.065Z,66.20
2018-05-02T13:56:19.801Z,65.80
2018-05-02T13:58:47.293Z,66.00
2018-05-02T14:01:14.831Z,66.50
2018-05-02T14:03:43.499Z,66.20
2018-05-02T14:06:11.209Z,66.70
2018-05-02T14:08:38.709Z,66.90
2018-05-02T14:11:06.237Z,66.50
2018-05-02T14:13:33.753Z,66.50
2018-05-02T14:16:01.934Z,66.70
2018-05-02T14:18:29.549Z,66.20
2018-05-02T14:20:57.065Z,66.00
2018-05-02T14:23:25.005Z,66.70
2018-05-02T14:25:53.527Z,66.70
2018-05-02T14:28:21.059Z,66.10
2018-05-02T14:30:48.675Z,66.80
2018-05-02T14:33:16.206Z,66.90
2018-05-02T14:35:43.730Z,67.40
2018-05-02T14:38:12.295Z,67.40
2018-05-02T14:40:39.906Z,67.80
2018-05-02T14:43:07.436Z,68.00
2018-05-02T14:45:35.336Z,67.60
2018-05-02T14:48:02.904Z,67.60
2018-05-02T14:50:30.416Z,68.00
2018-05-02T14:52:58.403Z,67.70
2018-05-02T14:55:26.069Z,67.70
2018-05-02T14:57:53.625Z,67.40
2018-05-02T15:00:21.149Z,67.60
2018-05-02T15:02:48.691Z,67.80
2018-05-02T15:05:16.307Z,67.60
2018-05-02T15:07:43.866Z,67.40
2018-05-02T15:10:11.376Z,66.70
2018-05-02T15:12:39.077Z,66.80
2018-05-02T15:15:06.713Z,66.70
2018-05-02T15:17:34.375Z,66.80
2018-05-02T15:20:01.881Z,67.40
2018-05-02T15:22:29.668Z,67.30
2018-05-02T15:24:58.134Z,67.00
2018-05-02T15:27:25.836Z,67.10
2018-05-02T15:29:53.802Z,67.30
2018-05-02T15:32:21.305Z,67.20
2018-05-02T15:34:48.853Z,67.20
2018-05-02T15:37:16.463Z,66.90
2018-05-02T15:39:44.140Z,67.50
2018-05-02T15:42:11.800Z,67.50
2018-05-02T15:44:39.441Z,67.70
2018-05-02T15:47:06.953Z,67.70
2018-05-02T15:49:34.484Z,67.80
2018-05-02T15:52:02.027Z,67.80
2018-05-02T15:54:30.548Z,67.40
2018-05-02T15:56:58.055Z,67.60
2018-05-02T15:59:25.614Z,67.70
2018-05-02T16:01:53.270Z,67.20
2018-05-02T16:04:21.001Z,67.30
2018-05-02T16:06:48.909Z,67.70
2018-05-02T16:09:16.645Z,67.70
2018-05-02T16:11:44.157Z,67.20
2018-05-02T16:14:11.705Z,67.00
2018-05-02T16:16:39.220Z,67.10
2018-05-02T16:19:06.772Z,67.00
2018-05-02T16:21:34.349Z,67.40
2018-05-02T16:24:02.298Z,67.70
2018-05-02T16:26:30.117Z,67.80
2018-05-02T16:28:57.641Z,68.10
2018-05-02T16:31:28.961Z,68.20
2018-05-02T16:33:56.585Z,68.10
2018-05-02T16:36:24.582Z,68.60
2018-05-02T16:38:52.244Z,68.60
2018-05-02T16:41:19.752Z,68.80
2018-05-02T16:43:47.761Z,69.10
2018-05-02T16:46:16.349Z,69.10
2018-05-02T16:48:46.257Z,69.10
2018-05-02T16:51:13.769Z,68.40
2018-05-02T16:53:41.325Z,68.70
2018-05-02T16:56:08.853Z,69.00
2018-05-02T16:58:36.577Z,68.60
2018-05-02T17:01:04.100Z,69.40
2018-05-02T17:03:32.927Z,70.10
2018-05-02T17:06:00.582Z,70.10
2018-05-02T17:08:28.245Z,71.20
2018-05-02T17:10:55.778Z,71.40
2018-05-02T17:13:24.577Z,71.70
2018-05-02T17:15:52.121Z,72.10
2018-05-02T17:18:19.625Z,72.10
2018-05-02T17:20:47.169Z,72.30
2018-05-02T17:23:14.678Z,72.30
2018-05-02T17:25:42.609Z,72.70
2018-05-02T17:28:10.119Z,72.70
2018-05-02T17:30:37.784Z,72.50
2018-05-02T17:33:05.288Z,72.50
2018-05-02T17:35:32.813Z,72.80
2018-05-02T17:38:00.334Z,72.80
2018-05-02T17:40:27.887Z,72.70
2018-05-02T17:42:57.235Z,72.80
2018-05-02T17:45:24.789Z,73.10
2018-05-02T17:47:52.310Z,73.30
2018-05-02T17:50:19.875Z,73.40
2018-05-02T17:52:47.565Z,73.70
2018-05-02T17:55:15.090Z,74.00
2018-05-02T17:57:42.748Z,74.10
2018-05-02T18:00:10.310Z,74.20
2018-05-02T18:02:37.970Z,74.10
2018-05-02T18:05:05.498Z,74.20
2018-05-02T18:07:33.401Z,74.20
2018-05-02T18:10:00.928Z,74.20
2018-05-02T18:12:28.449Z,74.30
2018-05-02T18:14:55.975Z,74.50
2018-05-02T18:17:23.477Z,74.50
2018-05-02T18:19:51.028Z,74.60
2018-05-02T18:22:18.932Z,74.80
2018-05-02T18:24:46.486Z,74.80
2018-05-02T18:27:13.989Z,74.80
2018-05-02T18:29:41.513Z,75.20
2018-05-02T18:32:09.009Z,75.30
2018-05-02T18:34:36.565Z,75.40
2018-05-02T18:37:04.533Z,75.60
2018-05-02T18:39:32.093Z,75.60
2018-05-02T18:41:59.700Z,75.70
2018-05-02T18:44:27.214Z,75.80
2018-05-02T18:46:55.114Z,75.90
2018-05-02T18:49:22.633Z,75.90
2018-05-02T18:51:50.325Z,75.90
2018-05-02T18:54:18.002Z,76.00
2018-05-02T18:56:45.548Z,76.00
2018-05-02T18:59:13.057Z,76.00
2018-05-02T19:01:40.597Z,76.20
2018-05-02T19:04:08.129Z,76.20
2018-05-02T19:06:35.875Z,76.50
2018-05-02T19:09:03.387Z,76.30
2018-05-02T19:11:30.917Z,76.20
2018-05-02T19:14:02.538Z,76.60
2018-05-02T19:16:30.074Z,76.60
2018-05-02T19:19:03.792Z,76.60
2018-05-02T19:21:31.326Z,76.60
2018-05-02T19:23:58.895Z,76.60
2018-05-02T19:26:32.246Z,76.70
2018-05-02T19:29:03.213Z,76.70
2018-05-02T19:31:36.457Z,76.70
2018-05-02T19:34:04.519Z,76.90
2018-05-02T19:36:32.665Z,77.00
2018-05-02T19:39:00.839Z,77.00
2018-05-02T19:41:34.094Z,76.90
2018-05-02T19:44:02.402Z,76.90
2018-05-02T19:46:29.932Z,77.00
2018-05-02T19:48:57.602Z,77.30
2018-05-02T19:51:30.729Z,77.40
2018-05-02T19:53:58.244Z,77.50
2018-05-02T19:56:25.976Z,77.60
2018-05-02T19:58:53.563Z,77.80
2018-05-02T20:01:29.091Z,78.00
2018-05-02T20:03:56.608Z,78.00
2018-05-02T20:06:24.393Z,78.10
2018-05-02T20:08:57.468Z,78.10
2018-05-02T20:14:28.000Z,78.20
2018-05-02T20:16:55.543Z,78.30
2018-05-02T20:19:23.781Z,78.40
2018-05-02T20:21:51.997Z,78.40
2018-05-02T20:24:19.511Z,78.40
2018-05-02T20:26:48.033Z,78.50
2018-05-02T20:29:15.563Z,78.60
2018-05-02T20:31:43.103Z,78.50
2018-05-02T20:34:10.597Z,78.70
2018-05-02T20:36:38.209Z,78.70
2018-05-02T20:39:05.684Z,78.70
2018-05-02T20:41:33.315Z,78.70
2018-05-02T20:44:01.437Z,78.80
2018-05-02T20:46:28.988Z,78.80
2018-05-02T20:48:57.118Z,78.90
2018-05-02T20:51:24.653Z,79.00
2018-05-02T20:53:52.216Z,79.10
2018-05-02T20:56:19.749Z,79.10
2018-05-02T20:58:47.643Z,78.90
2018-05-02T21:01:15.508Z,78.90
2018-05-02T21:03:43.783Z,78.90
2018-05-02T21:06:11.343Z,79.00
2018-05-02T21:08:39.787Z,79.00
2018-05-02T21:11:07.285Z,79.10
2018-05-02T21:13:36.097Z,79.50
2018-05-02T21:16:03.815Z,79.20
2018-05-02T21:18:31.345Z,79.50
2018-05-02T21:21:00.922Z,79.50
2018-05-02T21:23:28.460Z,79.50
2018-05-02T21:25:55.961Z,79.50
2018-05-02T21:28:23.506Z,79.70
2018-05-02T21:30:51.220Z,79.60
2018-05-02T21:33:19.733Z,79.70
2018-05-02T21:35:47.245Z,79.70
2018-05-02T21:38:14.797Z,79.70
2018-05-02T21:40:43.873Z,79.70
2018-05-02T21:43:12.173Z,79.80
2018-05-02T21:45:40.472Z,79.90
2018-05-02T21:48:08.113Z,80.10
2018-05-02T21:50:35.699Z,80.30
2018-05-02T21:53:03.241Z,80.30
2018-05-02T21:55:30.863Z,80.30
2018-05-02T21:57:58.533Z,80.30
2018-05-02T22:00:26.054Z,80.40
2018-05-02T22:02:53.984Z,80.60
2018-05-02T22:05:21.744Z,80.60
2018-05-02T22:07:49.205Z,80.80
2018-05-02T22:10:16.817Z,80.80
2018-05-02T22:12:44.577Z,80.90
2018-05-02T22:15:12.105Z,80.90
2018-05-02T22:17:39.609Z,80.60
2018-05-02T22:20:07.656Z,80.40
2018-05-02T22:22:35.305Z,80.40
2018-05-02T22:25:02.831Z,80.50
2018-05-02T22:27:30.939Z,80.80
2018-05-02T22:29:58.472Z,80.80
2018-05-02T22:32:25.981Z,80.60
2018-05-02T22:34:53.522Z,80.60
2018-05-02T22:37:21.021Z,80.90
2018-05-02T22:39:49.695Z,80.60
2018-05-02T22:42:17.394Z,80.80
2018-05-02T22:44:44.929Z,80.80
2018-05-02T22:47:12.831Z,80.80
2018-05-02T22:49:40.398Z,80.80
2018-05-02T22:52:08.563Z,80.60
2018-05-02T22:54:36.089Z,80.60
2018-05-02T22:57:04.840Z,80.50
2018-05-02T22:59:32.365Z,80.50
2018-05-02T23:01:59.889Z,80.40
2018-05-02T23:04:27.773Z,80.50
2018-05-02T23:06:55.281Z,80.60
2018-05-02T23:09:23.289Z,80.50
2018-05-02T23:11:50.825Z,80.50
2018-05-02T23:14:18.325Z,80.50
2018-05-02T23:16:47.027Z,80.50
2018-05-02T23:19:14.525Z,80.40
2018-05-02T23:21:43.017Z,80.60
2018-05-02T23:24:10.520Z,80.60
2018-05-02T23:26:38.050Z,80.60
2018-05-02T23:29:05.585Z,80.60
2018-05-02T23:31:33.445Z,80.90
2018-05-02T23:34:00.945Z,80.80
2018-05-02T23:36:28.472Z,80.60
2018-05-02T23:38:55.988Z,80.60
2018-05-02T23:41:23.562Z,80.60
2018-05-02T23:43:51.445Z,80.90
2018-05-02T23:46:18.983Z,80.90
2018-05-02T23:48:46.577Z,81.10
2018-05-02T23:51:14.108Z,81.10
2018-05-02T23:53:41.621Z,81.00
2018-05-02T23:56:09.574Z,81.00
2018-05-02T23:58:37.097Z,81.00
